Time;durP1;ratioP1;P1;durP2;ratioP2;P2;SDS_P1;SDS_P2;PMS_P1;PMS_P2;Temp;Humidity;BMP_temperature;BMP_pressure;BME280_temperature;BME280_humidity;BME280_pressure;Samples;Min_cycle;Max_cycle;Signal;HPM_P1;HPM_P2
2021/11/12 00:12:25;;;;;;;27.70;15.67;;;2.80;99.10;;;;;;5073717;28;20516;-71
2021/11/12 00:14:51;;;;;;;28.43;16.73;;;2.80;99.00;;;;;;5056114;28;20484;-72
2021/11/12 00:17:20;;;;;;;29.90;16.47;;;2.80;99.00;;;;;;5075510;28;20506;-72
2021/11/12 00:19:48;;;;;;;33.27;17.83;;;2.70;99.00;;;;;;5094260;28;20414;-71
2021/11/12 00:22:15;;;;;;;35.60;16.83;;;2.70;99.00;;;;;;5094538;28;20411;-72
2021/11/12 00:24:41;;;;;;;28.27;16.30;;;2.70;99.00;;;;;;5094001;28;20450;-71
2021/11/12 00:27:08;;;;;;;35.87;15.90;;;2.70;99.00;;;;;;5095023;28;20413;-72
2021/11/12 00:29:41;;;;;;;25.27;16.80;;;2.70;99.00;;;;;;5076225;28;20460;-71
2021/11/12 00:32:19;;;;;;;27.73;16.00;;;2.70;99.10;;;;;;5094495;28;20449;-71
2021/11/12 00:35:49;;;;;;;30.27;17.07;;;2.70;99.00;;;;;;5094447;28;20455;-71
2021/11/12 00:40:36;;;;;;;29.87;16.70;;;2.60;98.90;;;;;;5056132;28;20909;-71
2021/11/12 00:45:24;;;;;;;28.43;17.10;;;2.60;99.00;;;;;;5075459;28;20408;-72
2021/11/12 00:55:41;;;;;;;29.53;16.90;;;2.50;98.80;;;;;;5086813;28;20419;-73
2021/11/12 00:58:13;;;;;;;27.40;15.80;;;2.50;98.80;;;;;;5077754;28;20430;-71
2021/11/12 01:00:39;;;;;;;25.50;16.20;;;2.40;98.70;;;;;;5094621;28;20410;-72
2021/11/12 01:03:05;;;;;;;24.23;13.80;;;2.40;98.80;;;;;;5091004;28;20491;-71
2021/11/12 01:05:31;;;;;;;24.60;15.40;;;2.40;98.90;;;;;;5063453;28;20512;-71
2021/11/12 01:07:59;;;;;;;27.97;15.27;;;2.40;98.90;;;;;;5095614;28;20449;-71
2021/11/12 01:10:27;;;;;;;28.03;16.57;;;2.40;99.00;;;;;;5094896;28;20595;-70
2021/11/12 01:12:52;;;;;;;23.70;14.43;;;2.40;99.00;;;;;;5094665;28;22117;-72
2021/11/12 01:15:20;;;;;;;24.17;15.43;;;2.40;99.00;;;;;;5089804;28;20411;-72
2021/11/12 01:17:47;;;;;;;25.83;13.93;;;2.40;99.00;;;;;;5074120;28;20180;-71
2021/11/12 01:20:15;;;;;;;26.03;15.87;;;2.30;98.90;;;;;;5072968;28;20403;-71
2021/11/12 01:22:41;;;;;;;25.60;15.63;;;2.30;99.00;;;;;;5073192;28;20411;-70
2021/11/12 01:25:10;;;;;;;25.87;14.20;;;2.30;99.00;;;;;;5071160;28;20418;-72
2021/11/12 01:27:41;;;;;;;22.60;14.93;;;2.30;98.90;;;;;;5075867;28;20410;-70
2021/11/12 01:30:11;;;;;;;33.73;17.00;;;2.30;98.80;;;;;;5093484;28;20406;-71
2021/11/12 01:32:38;;;;;;;29.23;15.77;;;2.30;99.00;;;;;;5075432;28;20453;-71
2021/11/12 01:35:05;;;;;;;18.33;12.37;;;2.20;98.90;;;;;;5060298;28;20455;-71
2021/11/12 01:37:32;;;;;;;24.60;14.50;;;2.20;98.80;;;;;;5055873;28;20395;-71
2021/11/12 01:40:01;;;;;;;26.10;14.07;;;2.20;98.80;;;;;;5056558;28;20465;-71
2021/11/12 01:45:26;;;;;;;19.63;11.90;;;2.10;98.80;;;;;;4973546;28;20896;-74
2021/11/12 01:50:38;;;;;;;24.57;13.43;;;2.10;98.70;;;;;;4973287;28;20415;-72
2021/11/12 01:53:11;;;;;;;23.10;14.23;;;2.10;98.70;;;;;;4971382;28;20502;-74
2021/11/12 02:00:32;;;;;;;20.77;12.97;;;2.10;98.70;;;;;;4958854;29;20169;-73
2021/11/12 02:02:59;;;;;;;23.93;12.90;;;2.00;98.60;;;;;;4954761;28;20467;-74
2021/11/12 02:05:26;;;;;;;23.10;13.33;;;2.00;98.50;;;;;;4955253;29;20437;-73
2021/11/12 02:07:53;;;;;;;20.17;12.40;;;2.00;98.50;;;;;;4956336;28;20420;-73
2021/11/12 02:10:22;;;;;;;22.83;12.63;;;2.00;98.50;;;;;;4956946;28;20440;-73
2021/11/12 02:12:59;;;;;;;22.43;12.30;;;2.00;98.60;;;;;;4957036;29;20547;-73
2021/11/12 02:15:26;;;;;;;18.63;12.60;;;2.10;98.60;;;;;;4962141;28;20420;-72
2021/11/12 02:17:59;;;;;;;19.37;11.07;;;2.10;98.60;;;;;;4954434;29;20882;-73
2021/11/12 02:20:44;;;;;;;20.40;11.13;;;2.20;98.40;;;;;;4968551;28;20815;-73
2021/11/12 02:23:10;;;;;;;17.30;10.27;;;2.30;98.30;;;;;;4955593;28;20442;-73
2021/11/12 02:25:41;;;;;;;19.90;12.00;;;2.40;98.30;;;;;;4953262;29;20914;-73
2021/11/12 02:28:14;;;;;;;19.70;12.27;;;2.40;98.20;;;;;;4953465;29;20452;-73
2021/11/12 02:30:47;;;;;;;20.63;12.27;;;2.50;98.00;;;;;;4952750;29;20439;-73
2021/11/12 02:33:20;;;;;;;20.50;12.67;;;2.50;97.90;;;;;;4938502;29;20496;-74
2021/11/12 02:36:00;;;;;;;18.97;12.50;;;2.60;97.90;;;;;;4969146;28;20424;-73
2021/11/12 02:38:27;;;;;;;25.50;14.20;;;2.60;97.80;;;;;;4969234;28;20421;-73
2021/11/12 02:40:53;;;;;;;28.87;14.53;;;2.60;97.80;;;;;;4968351;28;20421;-74
2021/11/12 02:43:18;;;;;;;23.13;13.53;;;2.60;97.80;;;;;;4958444;28;20469;-72
2021/11/12 02:45:44;;;;;;;25.50;15.77;;;2.60;97.90;;;;;;4972525;28;20534;-72
2021/11/12 02:48:11;;;;;;;38.00;17.33;;;2.60;97.80;;;;;;4973777;28;20255;-73
2021/11/12 02:50:39;;;;;;;26.70;16.53;;;2.60;97.90;;;;;;4972781;28;20219;-73
2021/11/12 02:53:11;;;;;;;30.20;16.80;;;2.70;98.00;;;;;;4973033;28;20450;-73
2021/11/12 02:55:37;;;;;;;25.40;15.83;;;2.70;98.00;;;;;;4955901;28;20430;-73
2021/11/12 02:58:03;;;;;;;27.27;15.10;;;2.70;98.00;;;;;;4972371;28;20905;-73
2021/11/12 03:00:30;;;;;;;29.07;17.50;;;2.80;98.00;;;;;;4972702;28;20466;-73
2021/11/12 03:02:56;;;;;;;32.40;17.60;;;2.80;98.00;;;;;;4968807;28;20998;-72
2021/11/12 03:05:22;;;;;;;29.93;14.77;;;2.80;98.00;;;;;;4972456;28;20439;-73
2021/11/12 03:07:48;;;;;;;24.30;15.20;;;2.80;98.10;;;;;;4973026;28;20415;-73
2021/11/12 03:10:14;;;;;;;27.70;14.53;;;2.80;98.10;;;;;;4973292;28;20423;-72
2021/11/12 03:12:40;;;;;;;30.67;14.53;;;2.80;98.10;;;;;;4972720;28;20228;-72
2021/11/12 03:15:06;;;;;;;31.10;15.27;;;2.80;98.10;;;;;;4957534;28;20455;-74
2021/11/12 03:17:33;;;;;;;32.83;13.87;;;2.80;98.20;;;;;;4959407;28;20474;-74
2021/11/12 03:19:59;;;;;;;27.13;11.50;;;2.90;98.20;;;;;;4977178;28;20408;-73
2021/11/12 03:22:31;;;;;;;24.83;13.67;;;2.80;98.10;;;;;;4975480;28;20439;-73
2021/11/12 03:25:03;;;;;;;30.00;16.90;;;2.80;98.10;;;;;;4959416;28;20370;-74
2021/11/12 03:27:46;;;;;;;27.50;16.00;;;2.80;98.20;;;;;;4977636;28;20431;-74
2021/11/12 04:00:27;;;;;;;23.23;12.53;;;2.60;99.30;;;;;;4976761;28;20662;-73
2021/11/12 05:09:47;;;;;;;24.87;12.23;;;3.10;99.30;;;;;;4957655;28;20439;-73
2021/11/12 05:56:54;;;;;;;22.33;10.73;;;3.80;98.80;;;;;;4974210;28;20415;-72
2021/11/12 05:59:23;;;;;;;28.80;14.90;;;3.90;98.90;;;;;;4973975;28;20400;-73
2021/11/12 06:01:50;;;;;;;30.83;14.20;;;3.90;98.90;;;;;;4971573;28;20412;-72
2021/11/12 06:04:16;;;;;;;32.27;14.83;;;3.90;98.90;;;;;;4955960;28;20449;-73
2021/11/12 06:06:42;;;;;;;27.20;13.50;;;3.90;99.00;;;;;;4962714;28;20496;-74
2021/11/12 06:09:09;;;;;;;28.23;12.17;;;3.90;99.10;;;;;;4958670;28;20183;-72
2021/11/12 06:11:36;;;;;;;32.37;14.80;;;3.90;99.10;;;;;;4960477;28;20571;-73
2021/11/12 06:14:02;;;;;;;31.83;15.20;;;3.90;99.20;;;;;;4972427;28;20503;-74
2021/11/12 06:16:29;;;;;;;27.70;15.27;;;3.90;99.20;;;;;;4971371;28;20439;-74
2021/11/12 06:18:55;;;;;;;30.07;14.13;;;3.90;99.20;;;;;;4990082;28;20415;-74
2021/11/12 06:21:23;;;;;;;30.57;15.40;;;3.90;99.20;;;;;;4989263;28;20771;-73
2021/11/12 06:23:49;;;;;;;39.43;15.10;;;4.00;99.30;;;;;;4990662;28;20431;-74
2021/11/12 06:26:15;;;;;;;26.60;12.57;;;4.00;99.30;;;;;;4969686;28;20419;-75
2021/11/12 06:28:41;;;;;;;26.57;14.43;;;4.00;99.30;;;;;;4956020;28;20455;-73
2021/11/12 06:31:07;;;;;;;28.90;13.80;;;4.10;99.30;;;;;;4967165;28;20466;-74
2021/11/12 06:33:32;;;;;;;25.50;14.20;;;4.10;99.30;;;;;;4971861;28;20897;-74
2021/11/12 06:35:59;;;;;;;28.67;13.80;;;4.10;99.30;;;;;;4986455;28;20930;-73
2021/11/12 06:38:28;;;;;;;25.50;14.10;;;4.10;99.30;;;;;;4972040;28;20552;-70
2021/11/12 06:40:56;;;;;;;28.30;12.83;;;4.10;99.30;;;;;;4971054;28;20455;-69
2021/11/12 06:43:47;;;;;;;30.70;13.67;;;4.20;99.40;;;;;;4967068;28;20506;-70
2021/11/12 06:51:39;;;;;;;28.00;15.10;;;4.20;99.40;;;;;;4976400;28;20451;-70
2021/11/12 06:54:05;;;;;;;31.87;13.70;;;4.20;99.40;;;;;;4975948;28;20451;-70
2021/11/12 06:56:31;;;;;;;23.40;13.47;;;4.20;99.30;;;;;;4959079;28;20498;-71
2021/11/12 06:58:58;;;;;;;26.57;13.13;;;4.20;99.30;;;;;;4958764;28;20495;-70
2021/11/12 07:01:25;;;;;;;33.17;13.73;;;4.20;99.30;;;;;;4976796;28;20407;-69
2021/11/12 07:03:51;;;;;;;27.43;14.17;;;4.20;99.30;;;;;;4959573;28;20471;-69
2021/11/12 07:06:18;;;;;;;23.70;13.33;;;4.20;99.20;;;;;;4976936;28;20458;-68
2021/11/12 07:08:43;;;;;;;29.63;16.30;;;4.30;99.20;;;;;;4958841;28;20431;-69
2021/11/12 07:11:09;;;;;;;27.30;13.20;;;4.20;99.10;;;;;;4975098;28;20799;-68
2021/11/12 07:13:35;;;;;;;27.10;14.10;;;4.30;99.00;;;;;;4971765;28;20765;-68
2021/11/12 07:16:01;;;;;;;24.17;12.80;;;4.20;99.00;;;;;;4976356;28;20439;-68
2021/11/12 07:18:28;;;;;;;19.70;11.50;;;4.20;98.80;;;;;;4958122;28;20180;-68
2021/11/12 07:20:55;;;;;;;27.33;14.17;;;4.30;98.80;;;;;;4964927;28;20176;-68
2021/11/12 07:23:23;;;;;;;27.87;14.20;;;4.20;98.80;;;;;;4956927;28;20448;-68
2021/11/12 07:25:50;;;;;;;22.40;12.30;;;4.20;98.90;;;;;;4970338;28;20901;-69
2021/11/12 07:28:16;;;;;;;25.60;12.00;;;4.20;98.80;;;;;;4972128;28;20949;-68
2021/11/12 07:30:43;;;;;;;27.37;15.03;;;4.30;99.00;;;;;;4975477;28;20428;-69
2021/11/12 07:33:13;;;;;;;23.77;13.23;;;4.30;98.90;;;;;;4949592;28;20475;-69
2021/11/12 07:36:03;;;;;;;29.40;12.70;;;4.30;99.00;;;;;;4975619;28;20443;-69
2021/11/12 07:38:34;;;;;;;30.50;13.60;;;4.30;98.90;;;;;;4974779;28;20528;-69
2021/11/12 07:41:14;;;;;;;28.40;14.13;;;4.30;98.80;;;;;;4954592;28;20416;-71
2021/11/12 07:49:02;;;;;;;28.90;14.47;;;4.40;98.90;;;;;;5033527;28;20488;-74
2021/11/12 07:51:28;;;;;;;27.10;13.97;;;4.40;98.90;;;;;;5030507;28;20500;-74
2021/11/12 07:53:54;;;;;;;27.60;14.33;;;4.50;99.00;;;;;;5037618;28;20527;-74
2021/11/12 07:56:21;;;;;;;26.50;14.77;;;4.50;98.90;;;;;;5034574;28;20747;-75
2021/11/12 07:58:48;;;;;;;25.37;13.60;;;4.50;98.70;;;;;;5051807;28;20416;-75
2021/11/12 08:01:14;;;;;;;27.13;13.67;;;4.50;98.70;;;;;;5049414;28;20491;-75
2021/11/12 08:03:40;;;;;;;21.50;13.30;;;4.50;98.50;;;;;;5049938;28;20786;-74
2021/11/12 08:06:10;;;;;;;22.50;12.57;;;4.50;98.50;;;;;;5035215;28;20436;-75
2021/11/12 08:08:37;;;;;;;23.73;13.00;;;4.50;98.60;;;;;;5050020;28;20178;-74
2021/11/12 08:11:11;;;;;;;25.37;14.90;;;4.50;98.70;;;;;;5050569;28;20525;-75
2021/11/12 08:13:51;;;;;;;26.27;12.87;;;4.50;98.20;;;;;;5050223;28;20479;-74
2021/11/12 08:18:56;;;;;;;21.43;11.97;;;4.50;98.50;;;;;;5051666;28;20840;-74
2021/11/12 08:21:49;;;;;;;25.30;15.00;;;4.60;98.20;;;;;;5050554;28;20173;-74
2021/11/12 08:24:17;;;;;;;40.70;24.13;;;4.60;98.20;;;;;;5052017;28;20444;-74
2021/11/12 08:26:58;;;;;;;28.10;14.17;;;4.60;98.20;;;;;;5052375;28;20429;-75
2021/11/12 08:37:16;;;;;;;21.60;13.70;;;4.80;97.80;;;;;;5050744;28;20551;-75
2021/11/12 08:39:52;;;;;;;21.73;11.70;;;4.90;97.20;;;;;;5050124;28;20408;-74
2021/11/12 08:45:23;;;;;;;27.17;14.43;;;5.00;96.60;;;;;;5024370;28;20457;-75
2021/11/12 08:48:02;;;;;;;18.60;12.60;;;5.00;96.00;;;;;;5053220;28;20412;-75
2021/11/12 08:50:28;;;;;;;21.83;12.07;;;5.10;96.20;;;;;;5049953;28;20419;-75
2021/11/12 08:53:03;;;;;;;22.77;11.37;;;5.10;95.80;;;;;;5049844;28;20470;-74
2021/11/12 08:55:31;;;;;;;23.23;12.53;;;5.20;95.90;;;;;;5051568;28;20196;-76
2021/11/12 08:57:57;;;;;;;25.03;13.50;;;5.20;95.70;;;;;;5054140;28;20466;-75
2021/11/12 09:00:24;;;;;;;21.87;12.47;;;5.20;95.70;;;;;;5051960;28;20416;-75
2021/11/12 09:02:51;;;;;;;17.50;10.60;;;5.30;95.70;;;;;;5050954;28;20424;-75
2021/11/12 09:05:18;;;;;;;16.70;11.10;;;5.30;95.00;;;;;;5032349;28;20526;-73
2021/11/12 09:07:48;;;;;;;19.70;11.67;;;5.30;95.00;;;;;;5032885;28;20821;-74
2021/11/12 09:10:16;;;;;;;19.47;10.80;;;5.40;95.20;;;;;;5050663;28;20740;-74
2021/11/12 09:12:45;;;;;;;18.80;11.60;;;5.50;95.50;;;;;;5049312;28;20459;-76
2021/11/12 09:15:24;;;;;;;23.33;13.17;;;5.50;94.40;;;;;;5050622;28;20482;-75
2021/11/12 09:17:50;;;;;;;19.40;10.80;;;5.70;95.00;;;;;;5050491;28;20503;-76
2021/11/12 09:20:16;;;;;;;16.60;11.10;;;6.00;94.60;;;;;;5054778;28;20965;-75
2021/11/12 09:22:41;;;;;;;23.57;11.60;;;6.30;93.60;;;;;;5050172;28;20435;-76
2021/11/12 09:25:09;;;;;;;17.70;11.20;;;6.50;93.00;;;;;;5050365;28;20444;-74
2021/11/12 09:27:35;;;;;;;20.77;12.60;;;6.50;92.30;;;;;;5049963;28;20910;-75
2021/11/12 09:30:07;;;;;;;20.27;12.27;;;6.40;91.50;;;;;;5058380;28;20443;-74
2021/11/12 09:32:32;;;;;;;25.07;11.70;;;6.40;92.30;;;;;;5048977;28;20452;-74
2021/11/12 09:34:58;;;;;;;64.73;31.00;;;6.40;92.00;;;;;;5049383;28;20805;-74
2021/11/12 09:37:24;;;;;;;20.30;12.63;;;6.30;91.60;;;;;;5049080;28;20174;-74
2021/11/12 09:39:57;;;;;;;20.00;12.10;;;6.20;91.50;;;;;;5049684;28;20166;-74
2021/11/12 09:42:25;;;;;;;21.43;11.20;;;6.20;91.80;;;;;;5048370;28;20432;-75
2021/11/12 09:44:52;;;;;;;24.50;12.00;;;6.10;91.60;;;;;;5049597;28;20510;-75
2021/11/12 09:47:23;;;;;;;22.97;10.73;;;6.10;92.40;;;;;;5049184;28;20473;-76
2021/11/12 09:49:51;;;;;;;21.70;11.83;;;6.20;92.40;;;;;;5050163;28;20432;-73
2021/11/12 09:52:17;;;;;;;24.40;13.10;;;6.40;92.30;;;;;;5047872;28;20451;-75
2021/11/12 09:54:43;;;;;;;19.30;12.10;;;6.40;91.10;;;;;;5049155;28;20459;-75
2021/11/12 09:57:11;;;;;;;19.73;11.60;;;6.40;91.20;;;;;;5050485;28;20165;-75
2021/11/12 09:59:37;;;;;;;20.03;11.10;;;6.50;91.10;;;;;;5050334;28;20448;-74
2021/11/12 10:02:05;;;;;;;18.30;12.23;;;6.60;91.30;;;;;;5061297;28;20412;-75
2021/11/12 10:04:31;;;;;;;18.70;11.90;;;6.80;91.30;;;;;;5049855;28;20531;-76
2021/11/12 10:06:58;;;;;;;18.10;11.30;;;7.00;91.70;;;;;;5048878;28;20493;-76
2021/11/12 10:09:24;;;;;;;15.13;9.90;;;7.50;90.90;;;;;;5050133;28;20503;-75
2021/11/12 10:11:56;;;;;;;20.90;11.33;;;7.80;88.80;;;;;;5049017;28;20456;-74
2021/11/12 10:17:30;;;;;;;15.93;11.17;;;7.90;85.80;;;;;;5037008;28;20622;-74
2021/11/12 10:19:57;;;;;;;22.47;12.57;;;7.90;86.80;;;;;;5047439;28;20444;-75
2021/11/12 10:22:24;;;;;;;20.93;14.90;;;7.90;85.50;;;;;;5049047;28;20438;-75
2021/11/12 10:24:50;;;;;;;16.37;10.80;;;7.80;84.20;;;;;;5051664;28;20482;-75
2021/11/12 10:27:18;;;;;;;21.50;11.60;;;7.60;84.60;;;;;;5051891;28;20945;-73
2021/11/12 10:29:49;;;;;;;24.33;11.17;;;7.50;85.90;;;;;;5037805;28;20178;-74
2021/11/12 10:32:30;;;;;;;22.43;12.30;;;7.30;86.30;;;;;;5040622;28;20551;-74
2021/11/12 10:35:06;;;;;;;19.57;12.13;;;7.20;86.70;;;;;;5053177;28;20432;-76
2021/11/12 10:37:34;;;;;;;20.10;13.47;;;7.10;88.20;;;;;;5052507;28;20444;-74
2021/11/12 10:40:08;;;;;;;20.70;12.83;;;7.00;88.60;;;;;;5053199;28;20487;-75
2021/11/12 10:42:40;;;;;;;24.27;12.87;;;6.90;88.70;;;;;;5052511;28;20431;-74
2021/11/12 10:45:07;;;;;;;23.03;11.40;;;6.90;89.10;;;;;;5052023;28;20474;-75
2021/11/12 10:47:33;;;;;;;18.83;11.93;;;6.90;89.30;;;;;;5053669;28;20415;-73
2021/11/12 10:50:00;;;;;;;19.97;11.07;;;6.80;89.30;;;;;;5052985;28;20847;-74
2021/11/12 10:52:29;;;;;;;16.23;10.17;;;6.80;89.80;;;;;;5050381;28;20521;-75
2021/11/12 10:55:17;;;;;;;18.37;11.90;;;6.80;89.40;;;;;;5052590;28;20454;-75
2021/11/12 10:57:47;;;;;;;28.03;12.30;;;6.80;89.90;;;;;;5036962;28;20423;-74
2021/11/12 11:00:15;;;;;;;20.37;10.97;;;6.90;90.00;;;;;;5051409;28;20420;-75
2021/11/12 11:02:51;;;;;;;22.20;11.50;;;6.90;90.00;;;;;;5052266;28;20778;-75
2021/11/12 11:05:19;;;;;;;18.93;11.83;;;6.90;90.00;;;;;;5050963;28;20454;-76
2021/11/12 11:07:53;;;;;;;21.93;11.27;;;6.90;90.40;;;;;;5053216;28;20921;-75
2021/11/12 11:10:38;;;;;;;20.00;12.57;;;7.00;89.60;;;;;;5050153;28;20797;-74
2021/11/12 11:13:09;;;;;;;16.70;10.87;;;7.00;89.80;;;;;;5047566;28;20477;-74
2021/11/12 11:15:44;;;;;;;26.27;12.33;;;7.00;89.80;;;;;;5035430;28;20441;-75
2021/11/12 11:18:18;;;;;;;16.97;11.53;;;7.10;90.00;;;;;;5052593;28;20418;-74
2021/11/12 11:20:49;;;;;;;19.27;12.00;;;7.20;89.50;;;;;;5051229;28;20439;-74
2021/11/12 11:23:17;;;;;;;19.80;11.03;;;7.20;88.90;;;;;;5049178;28;20428;-75
2021/11/12 11:26:09;;;;;;;22.27;12.60;;;7.30;88.70;;;;;;5049450;28;20436;-75
2021/11/12 11:28:37;;;;;;;21.17;13.13;;;7.30;88.70;;;;;;5047595;28;20839;-76
2021/11/12 11:31:06;;;;;;;23.27;13.07;;;7.40;88.70;;;;;;5052040;28;20424;-76
2021/11/12 11:33:32;;;;;;;17.97;11.93;;;7.40;88.10;;;;;;5064325;28;20466;-74
2021/11/12 11:36:00;;;;;;;17.13;10.83;;;7.50;88.60;;;;;;5050369;28;20416;-74
2021/11/12 11:38:29;;;;;;;25.23;13.00;;;7.50;88.50;;;;;;5052228;28;20470;-76
2021/11/12 11:40:57;;;;;;;24.03;12.13;;;7.60;88.50;;;;;;5050536;28;20405;-75
2021/11/12 11:43:24;;;;;;;25.20;14.70;;;7.70;88.20;;;;;;5051930;28;20432;-75
2021/11/12 11:45:50;;;;;;;17.43;12.63;;;7.80;87.30;;;;;;5051282;28;20511;-76
2021/11/12 11:48:17;;;;;;;17.27;10.13;;;7.80;87.50;;;;;;5051338;28;20424;-75
2021/11/12 11:50:55;;;;;;;21.20;13.10;;;7.80;86.80;;;;;;5049123;28;20424;-73
2021/11/12 11:53:25;;;;;;;21.97;12.97;;;7.80;86.20;;;;;;5046427;28;20755;-74
2021/11/12 11:55:53;;;;;;;28.13;14.97;;;7.80;85.70;;;;;;5053799;28;20431;-74
2021/11/12 11:58:38;;;;;;;20.43;13.27;;;7.90;86.30;;;;;;5056651;28;20424;-75
2021/11/12 12:01:22;;;;;;;18.50;12.77;;;7.90;85.70;;;;;;5051075;28;20404;-75
2021/11/12 12:04:10;;;;;;;22.07;13.50;;;7.90;85.70;;;;;;5051461;28;20420;-75
2021/11/12 12:06:38;;;;;;;19.10;12.10;;;8.00;85.80;;;;;;5052456;28;20408;-75
2021/11/12 12:09:14;;;;;;;16.80;12.20;;;8.00;85.60;;;;;;5052659;28;20754;-77
2021/11/12 12:11:49;;;;;;;22.70;12.50;;;8.10;85.20;;;;;;5050505;28;20441;-75
2021/11/12 12:14:23;;;;;;;16.60;11.90;;;8.10;84.70;;;;;;5052229;28;20440;-75
2021/11/12 12:17:10;;;;;;;25.80;11.80;;;8.20;84.30;;;;;;5057935;28;20424;-76
2021/11/12 12:19:59;;;;;;;20.70;12.90;;;8.20;83.40;;;;;;5059032;28;20412;-75
2021/11/12 13:25:55;;;;;;;19.07;11.37;;;8.80;79.40;;;;;;5070770;28;20512;-73
2021/11/12 13:28:24;;;;;;;22.67;13.50;;;8.70;79.50;;;;;;5071421;28;20419;-74
2021/11/12 13:31:10;;;;;;;19.70;13.23;;;8.70;79.70;;;;;;5071643;28;20403;-74
2021/11/12 13:33:41;;;;;;;20.00;12.43;;;8.80;80.00;;;;;;5069972;28;20455;-74
2021/11/12 13:36:15;;;;;;;20.37;13.07;;;8.80;79.80;;;;;;5055667;28;20416;-74
2021/11/12 13:38:46;;;;;;;17.97;12.03;;;8.80;79.60;;;;;;5050606;28;20408;-74
2021/11/12 13:41:15;;;;;;;21.47;12.97;;;8.80;79.20;;;;;;5048598;28;20405;-74
2021/11/12 13:43:43;;;;;;;21.70;13.17;;;8.70;79.70;;;;;;5050591;28;20482;-75
2021/11/12 13:46:10;;;;;;;20.70;12.13;;;8.70;79.50;;;;;;5050923;28;20431;-74
2021/11/12 13:48:52;;;;;;;19.33;13.00;;;8.70;79.60;;;;;;5050707;28;20415;-74
2021/11/12 13:51:28;;;;;;;20.30;13.70;;;8.70;80.00;;;;;;5049390;28;20404;-74
2021/11/12 13:53:54;;;;;;;26.13;12.80;;;8.70;80.00;;;;;;5050832;28;20463;-75
2021/11/12 13:56:19;;;;;;;17.10;11.43;;;8.70;80.10;;;;;;5050429;28;20404;-74
2021/11/12 13:58:46;;;;;;;19.47;11.97;;;8.70;79.80;;;;;;5048403;28;20419;-74
2021/11/12 14:01:23;;;;;;;20.90;12.27;;;8.70;79.70;;;;;;5047888;28;20154;-74
2021/11/12 14:03:51;;;;;;;17.93;11.30;;;8.70;79.70;;;;;;5050179;28;20824;-75
2021/11/12 14:06:19;;;;;;;21.37;12.77;;;8.70;79.60;;;;;;5050246;28;20500;-75
2021/11/12 14:08:50;;;;;;;18.87;12.33;;;8.60;78.80;;;;;;5051258;28;20400;-74
2021/11/12 14:11:28;;;;;;;18.63;12.23;;;8.60;78.90;;;;;;5050043;28;20452;-74
2021/11/12 14:13:57;;;;;;;20.97;12.00;;;8.50;79.00;;;;;;5052045;28;20519;-77
2021/11/12 14:16:56;;;;;;;21.43;12.43;;;8.50;79.20;;;;;;5046400;28;20428;-76
2021/11/12 14:22:04;;;;;;;17.53;11.80;;;8.50;79.40;;;;;;5035878;28;20401;-77
2021/11/12 14:38:04;;;;;;;19.73;11.83;;;8.30;79.30;;;;;;5048799;28;20420;-75
2021/11/12 14:40:47;;;;;;;17.10;10.83;;;8.30;79.60;;;;;;5049534;28;20435;-75
2021/11/12 14:43:30;;;;;;;15.47;10.53;;;8.30;79.70;;;;;;5032109;28;20486;-75
2021/11/12 14:46:35;;;;;;;16.57;11.00;;;8.30;80.00;;;;;;5049766;28;20982;-75
2021/11/12 14:52:04;;;;;;;20.20;11.70;;;8.20;80.20;;;;;;5049242;28;20416;-75
2021/11/12 14:54:48;;;;;;;16.30;10.23;;;8.10;80.50;;;;;;5050032;28;20790;-75
2021/11/12 14:57:42;;;;;;;20.63;11.03;;;8.00;80.50;;;;;;5048632;28;20412;-74
2021/11/12 15:00:15;;;;;;;16.70;10.20;;;8.00;80.90;;;;;;5049707;28;20880;-75
2021/11/12 15:02:42;;;;;;;16.43;10.33;;;7.90;81.00;;;;;;5049176;28;20472;-75
2021/11/12 15:05:09;;;;;;;18.70;11.23;;;7.90;81.20;;;;;;5049843;28;20442;-74
2021/11/12 15:07:40;;;;;;;14.67;10.63;;;7.80;81.30;;;;;;5049620;28;20412;-74
2021/11/12 15:10:11;;;;;;;17.23;10.10;;;7.80;81.60;;;;;;5050285;28;20924;-76
2021/11/12 15:12:38;;;;;;;17.57;10.10;;;7.80;82.00;;;;;;5051462;28;20463;-76
2021/11/12 15:15:04;;;;;;;14.93;8.77;;;7.70;82.00;;;;;;5053677;28;20443;-75
2021/11/12 15:17:30;;;;;;;17.17;10.20;;;7.70;82.10;;;;;;5053592;28;20412;-75
2021/11/12 15:19:57;;;;;;;23.40;10.27;;;7.60;82.30;;;;;;5052089;28;20934;-73
2021/11/12 15:22:36;;;;;;;19.40;10.27;;;7.60;83.50;;;;;;5052567;28;20420;-75
2021/11/12 15:25:21;;;;;;;18.97;11.13;;;7.60;83.00;;;;;;5053604;28;20860;-74
2021/11/12 15:33:03;;;;;;;18.13;9.73;;;7.40;83.70;;;;;;5052693;28;20877;-74
2021/11/12 15:35:31;;;;;;;21.03;11.20;;;7.40;84.30;;;;;;5052478;28;20546;-76
2021/11/12 15:43:53;;;;;;;21.47;11.80;;;7.20;84.90;;;;;;5014113;28;20836;-73
2021/11/12 15:46:39;;;;;;;13.57;9.70;;;7.20;85.30;;;;;;5040983;28;20412;-74
2021/11/12 15:49:05;;;;;;;14.47;9.30;;;7.20;85.50;;;;;;5065917;28;20426;-77
2021/11/12 15:51:55;;;;;;;16.30;10.63;;;7.10;85.70;;;;;;5063411;28;20488;-77
2021/11/12 16:12:35;;;;;;;14.97;10.13;;;6.70;87.50;;;;;;5047572;28;20482;-75
2021/11/12 16:15:12;;;;;;;17.10;10.57;;;6.70;87.90;;;;;;5050735;28;20443;-75
2021/11/12 16:17:49;;;;;;;20.37;11.27;;;6.70;88.10;;;;;;5052174;28;20412;-76
2021/11/12 16:25:22;;;;;;;17.93;10.60;;;6.50;88.70;;;;;;5049904;28;20193;-78
2021/11/12 16:27:50;;;;;;;23.40;11.53;;;6.50;88.90;;;;;;5062466;28;20427;-76
2021/11/12 16:30:20;;;;;;;18.90;11.97;;;6.40;89.00;;;;;;5053310;28;20470;-76
2021/11/12 16:32:49;;;;;;;23.87;12.80;;;6.40;89.40;;;;;;5056579;28;20809;-74
2021/11/12 16:35:19;;;;;;;18.63;11.63;;;6.40;89.80;;;;;;5051364;28;20930;-76
2021/11/12 16:37:47;;;;;;;20.00;12.30;;;6.40;90.00;;;;;;5046984;28;20833;-76
2021/11/12 16:50:38;;;;;;;19.43;10.90;;;6.20;90.60;;;;;;5031328;28;20455;-74
2021/11/12 17:04:07;;;;;;;20.17;11.17;;;6.10;91.20;;;;;;5012537;28;20471;-74
2021/11/12 17:06:39;;;;;;;22.17;12.80;;;6.00;91.10;;;;;;5050803;28;20427;-76
2021/11/12 17:17:22;;;;;;;17.17;11.97;;;5.90;91.30;;;;;;5050748;28;20477;-76
2021/11/12 18:05:04;;;;;;;19.20;12.80;;;5.40;92.60;;;;;;5051254;28;20850;-75
2021/11/12 18:16:13;;;;;;;21.17;11.87;;;5.30;92.90;;;;;;5051260;28;20405;-76
2021/11/12 18:24:43;;;;;;;17.80;9.60;;;5.30;93.10;;;;;;5050627;28;20878;-76
2021/11/12 21:48:44;;;;;;;17.00;9.30;;;5.30;91.00;;;;;;5054161;28;20431;-75
2021/11/12 21:51:23;;;;;;;14.37;9.20;;;5.30;90.90;;;;;;5051723;28;20921;-74
2021/11/12 21:53:49;;;;;;;14.53;9.13;;;5.30;90.90;;;;;;5053890;28;20988;-77
2021/11/12 21:56:14;;;;;;;16.43;8.80;;;5.30;90.90;;;;;;5054135;28;20451;-73
2021/11/12 21:58:40;;;;;;;15.50;9.03;;;5.20;90.70;;;;;;5053274;28;20161;-73
2021/11/12 22:01:06;;;;;;;12.93;7.90;;;5.20;90.80;;;;;;5051957;28;20161;-74
2021/11/12 22:03:32;;;;;;;11.93;7.60;;;5.00;91.00;;;;;;5053571;28;20188;-73
2021/11/12 22:05:59;;;;;;;16.77;9.77;;;5.00;91.10;;;;;;5053129;28;20250;-74
2021/11/12 22:08:28;;;;;;;14.53;8.97;;;5.00;91.20;;;;;;5054066;28;20181;-73
2021/11/12 22:10:59;;;;;;;15.10;8.80;;;4.90;91.20;;;;;;5052488;28;20487;-75
2021/11/12 22:13:25;;;;;;;19.53;9.73;;;4.90;91.30;;;;;;5054626;28;20456;-74
2021/11/12 22:15:51;;;;;;;17.30;9.60;;;4.80;91.40;;;;;;5052492;28;20486;-74
2021/11/12 22:18:17;;;;;;;14.73;8.67;;;4.80;91.50;;;;;;5054799;28;20481;-74
2021/11/12 22:20:44;;;;;;;19.63;9.57;;;4.80;91.60;;;;;;5060092;28;20407;-75
2021/11/12 22:23:15;;;;;;;19.47;9.60;;;4.80;91.60;;;;;;5059146;28;20446;-74
2021/11/12 22:25:41;;;;;;;21.50;11.13;;;4.80;91.60;;;;;;5060310;28;20431;-74
2021/11/12 22:28:07;;;;;;;17.50;9.17;;;4.80;91.80;;;;;;5061975;28;20434;-74
2021/11/12 22:30:34;;;;;;;13.10;8.07;;;4.80;91.80;;;;;;5059620;28;20204;-73
2021/11/12 22:33:01;;;;;;;16.07;9.17;;;4.80;91.70;;;;;;5058212;28;20456;-76
2021/11/12 22:35:26;;;;;;;18.37;10.93;;;4.90;91.70;;;;;;5058587;28;20504;-76
2021/11/12 22:37:52;;;;;;;18.83;9.30;;;4.90;91.70;;;;;;5058566;28;20404;-74
2021/11/12 22:40:18;;;;;;;18.73;9.60;;;4.90;91.70;;;;;;5058450;28;20166;-76
2021/11/12 22:42:44;;;;;;;16.03;9.83;;;4.90;91.70;;;;;;5057701;28;20207;-75
2021/11/12 22:45:11;;;;;;;19.10;10.07;;;5.00;91.70;;;;;;5058342;28;20673;-76
2021/11/12 22:47:37;;;;;;;16.10;9.87;;;5.00;91.50;;;;;;5058662;28;20407;-73
2021/11/12 22:50:06;;;;;;;16.67;10.07;;;5.10;91.40;;;;;;5060260;28;20635;-73
2021/11/12 22:52:32;;;;;;;15.10;9.63;;;5.20;91.30;;;;;;5059404;28;20574;-75
2021/11/12 22:54:58;;;;;;;16.47;9.20;;;5.20;91.10;;;;;;5059766;28;20428;-75
2021/11/12 22:57:23;;;;;;;15.60;8.67;;;5.20;90.90;;;;;;5059369;28;20422;-73
2021/11/12 22:59:49;;;;;;;17.70;10.70;;;5.30;91.00;;;;;;5060212;28;20256;-73
2021/11/12 23:02:15;;;;;;;17.20;9.90;;;5.30;91.20;;;;;;5059320;28;20170;-74
2021/11/12 23:04:40;;;;;;;17.33;9.40;;;5.30;91.20;;;;;;5059747;28;20280;-74